createdAt,value
2024-04-30T00:00:04.295Z,35.27
2024-04-30T00:01:04.425Z,35.28
2024-04-30T00:02:04.345Z,35.35
2024-04-30T00:03:04.394Z,35.28
2024-04-30T00:04:04.535Z,35.32
2024-04-30T00:05:04.713Z,35.33
2024-04-30T00:06:04.510Z,35.33
2024-04-30T00:07:04.571Z,35.25
2024-04-30T00:08:04.601Z,35.27
2024-04-30T00:09:04.643Z,35.28
2024-04-30T00:10:04.686Z,35.30
2024-04-30T00:11:04.730Z,35.36
2024-04-30T00:12:04.719Z,35.28
2024-04-30T00:13:04.773Z,35.27
2024-04-30T00:14:04.806Z,35.29
2024-04-30T00:15:04.843Z,35.25
2024-04-30T00:16:04.888Z,35.25
2024-04-30T00:17:04.885Z,35.23
2024-04-30T00:18:04.981Z,35.21
2024-04-30T00:19:05.050Z,35.23
2024-04-30T00:20:05.093Z,35.22
2024-04-30T00:21:05.061Z,35.25
2024-04-30T00:22:05.114Z,35.25
2024-04-30T00:23:05.116Z,35.25
2024-04-30T00:24:05.169Z,35.29
2024-04-30T00:25:05.271Z,35.24
2024-04-30T00:26:05.220Z,35.28
2024-04-30T00:27:05.273Z,35.28
2024-04-30T00:28:05.322Z,35.23
2024-04-30T00:29:05.309Z,35.24
2024-04-30T00:30:05.363Z,35.21
2024-04-30T00:31:05.442Z,35.30
2024-04-30T00:32:05.453Z,35.21
2024-04-30T00:33:05.661Z,35.24
2024-04-30T00:34:05.573Z,35.29
2024-04-30T00:35:05.527Z,35.26
2024-04-30T00:36:05.578Z,35.22
2024-04-30T00:37:05.659Z,35.24
2024-04-30T00:38:05.663Z,35.24
2024-04-30T00:39:05.696Z,35.33
2024-04-30T00:40:05.787Z,35.32
2024-04-30T00:41:05.774Z,35.29
2024-04-30T00:42:05.798Z,35.28
2024-04-30T00:43:05.853Z,35.28
2024-04-30T00:44:05.850Z,35.25
2024-04-30T00:45:05.908Z,35.30
2024-04-30T00:46:05.997Z,35.26
2024-04-30T00:47:05.983Z,35.29
2024-04-30T00:48:06.230Z,35.29
2024-04-30T00:49:06.139Z,35.29
2024-04-30T00:50:06.111Z,35.31
2024-04-30T00:51:06.139Z,35.28
2024-04-30T00:52:06.259Z,35.26
2024-04-30T00:53:06.212Z,35.32
2024-04-30T00:54:06.266Z,35.30
2024-04-30T00:55:06.316Z,35.28
2024-04-30T00:56:06.362Z,35.26
2024-04-30T00:57:06.352Z,35.30
2024-04-30T00:58:06.442Z,35.33
2024-04-30T00:59:06.427Z,35.31
2024-04-30T01:00:06.526Z,35.30
2024-04-30T01:01:06.734Z,35.30
2024-04-30T01:02:06.554Z,35.33
2024-04-30T01:03:06.650Z,35.29
2024-04-30T01:04:06.635Z,35.32
2024-04-30T01:05:06.698Z,35.28
2024-04-30T01:06:06.695Z,35.30
2024-04-30T01:07:06.746Z,35.30
2024-04-30T01:08:06.773Z,35.31
2024-04-30T01:09:06.811Z,35.33
2024-04-30T01:10:06.901Z,35.30
2024-04-30T01:11:06.883Z,35.33
2024-04-30T01:12:06.923Z,35.34
2024-04-30T01:13:07.051Z,35.30
2024-04-30T01:14:07.006Z,35.26
2024-04-30T01:15:07.029Z,35.30
2024-04-30T01:16:07.073Z,35.33
2024-04-30T01:17:07.138Z,35.29
2024-04-30T01:18:07.191Z,35.29
2024-04-30T01:19:07.175Z,35.29
2024-04-30T01:20:07.212Z,35.28
2024-04-30T01:21:07.249Z,35.30
2024-04-30T01:22:07.293Z,35.28
2024-04-30T01:23:07.305Z,35.30
2024-04-30T01:24:07.361Z,35.30
2024-04-30T01:25:07.426Z,35.35
2024-04-30T01:26:07.412Z,35.34
2024-04-30T01:27:07.452Z,35.30
2024-04-30T01:28:07.585Z,35.35
2024-04-30T01:29:07.531Z,35.32
2024-04-30T01:30:07.565Z,35.34
2024-04-30T01:31:07.627Z,35.29
2024-04-30T01:32:07.692Z,35.29
2024-04-30T01:33:07.732Z,35.35
2024-04-30T01:34:07.736Z,35.31
2024-04-30T01:35:07.743Z,35.31
2024-04-30T01:36:07.770Z,35.30
2024-04-30T01:37:07.818Z,35.34
2024-04-30T01:38:07.839Z,35.34
2024-04-30T01:39:07.913Z,35.30
2024-04-30T01:40:07.974Z,35.32
2024-04-30T01:41:07.947Z,35.29
2024-04-30T01:42:08.008Z,35.29
2024-04-30T01:43:08.111Z,35.31
2024-04-30T01:44:08.094Z,35.29
2024-04-30T01:45:08.131Z,35.34
2024-04-30T01:46:08.171Z,35.30
2024-04-30T01:47:08.200Z,35.33
2024-04-30T01:48:08.305Z,35.30
2024-04-30T01:49:08.281Z,35.26
2024-04-30T01:50:08.306Z,35.33
2024-04-30T01:51:08.336Z,35.32
2024-04-30T01:52:08.417Z,35.26
2024-04-30T01:53:08.419Z,35.30
2024-04-30T01:54:08.471Z,35.35
2024-04-30T01:55:08.532Z,35.33
2024-04-30T01:56:08.531Z,35.33
2024-04-30T01:57:08.612Z,35.31
2024-04-30T01:58:08.641Z,35.31
2024-04-30T01:59:08.635Z,35.32
2024-04-30T02:00:08.703Z,35.35
2024-04-30T02:01:08.777Z,35.31
2024-04-30T02:02:08.771Z,35.34
2024-04-30T02:03:08.876Z,35.32
2024-04-30T02:04:08.864Z,35.31
2024-04-30T02:05:14.095Z,35.33
2024-04-30T02:06:09.885Z,35.35
2024-04-30T02:07:08.924Z,35.34
2024-04-30T02:08:08.900Z,35.30
2024-04-30T02:09:08.902Z,35.38
2024-04-30T02:10:08.938Z,35.33
2024-04-30T02:11:08.912Z,35.30
2024-04-30T02:12:08.916Z,35.34
2024-04-30T02:13:08.947Z,35.31
2024-04-30T02:14:08.917Z,35.33
2024-04-30T02:15:08.925Z,35.33
2024-04-30T02:16:09.012Z,35.31
2024-04-30T02:17:09.008Z,35.28
2024-04-30T02:18:08.951Z,35.30
2024-04-30T02:19:09.024Z,35.32
2024-04-30T02:20:08.977Z,35.28
2024-04-30T02:21:09.052Z,35.32
2024-04-30T02:22:09.073Z,35.32
2024-04-30T02:23:09.109Z,35.33
2024-04-30T02:24:09.143Z,35.33
2024-04-30T02:25:09.275Z,35.30
2024-04-30T02:26:09.214Z,35.27
2024-04-30T02:27:09.259Z,35.33
2024-04-30T02:28:09.334Z,35.31
2024-04-30T02:29:09.403Z,35.35
2024-04-30T02:30:09.423Z,35.33
2024-04-30T02:31:09.539Z,35.32
2024-04-30T02:32:09.538Z,35.32
2024-04-30T02:33:09.648Z,35.32
2024-04-30T02:34:09.682Z,35.32
2024-04-30T02:35:09.663Z,35.30
2024-04-30T02:36:09.705Z,35.35
2024-04-30T02:37:09.757Z,35.33
2024-04-30T02:38:09.772Z,35.36
2024-04-30T02:39:09.839Z,35.35
2024-04-30T02:40:09.925Z,35.30
2024-04-30T02:41:09.926Z,35.33
2024-04-30T02:42:09.981Z,35.40
2024-04-30T02:43:10.069Z,35.32
2024-04-30T02:44:10.065Z,35.33
2024-04-30T02:45:10.189Z,35.36
2024-04-30T02:46:10.187Z,35.32
2024-04-30T02:47:10.235Z,35.32
2024-04-30T02:48:10.273Z,35.32
2024-04-30T02:49:10.310Z,35.37
2024-04-30T02:50:10.352Z,35.34
2024-04-30T02:51:10.375Z,35.31
2024-04-30T02:52:10.463Z,35.37
2024-04-30T02:53:10.491Z,35.32
2024-04-30T02:54:10.521Z,35.33
2024-04-30T02:55:10.589Z,35.33
2024-04-30T02:56:10.616Z,35.30
2024-04-30T02:57:10.653Z,35.35
2024-04-30T02:58:10.737Z,35.39
2024-04-30T02:59:10.743Z,35.36
2024-04-30T03:00:10.767Z,35.35
2024-04-30T03:01:10.871Z,35.36
2024-04-30T03:02:10.887Z,35.31
2024-04-30T03:03:10.958Z,35.35
2024-04-30T03:04:11.209Z,35.36
2024-04-30T03:05:10.999Z,35.37
2024-04-30T03:06:11.042Z,35.37
2024-04-30T03:07:11.123Z,35.34
2024-04-30T03:08:11.135Z,35.36
2024-04-30T03:09:11.201Z,35.39
2024-04-30T03:10:11.244Z,35.33
2024-04-30T03:11:11.298Z,35.36
2024-04-30T03:12:11.306Z,35.41
2024-04-30T03:13:11.417Z,35.41
2024-04-30T03:14:11.392Z,35.41
2024-04-30T03:15:13.336Z,35.41
2024-04-30T03:16:11.462Z,35.34
2024-04-30T03:17:11.439Z,35.39
2024-04-30T03:18:11.470Z,35.35
2024-04-30T03:19:11.487Z,35.41
2024-04-30T03:20:11.437Z,35.37
2024-04-30T03:21:11.451Z,35.35
2024-04-30T03:22:11.456Z,35.30
2024-04-30T03:23:11.488Z,35.37
2024-04-30T03:24:11.467Z,35.33
2024-04-30T03:25:13.376Z,35.38
2024-04-30T03:26:11.450Z,35.32
2024-04-30T03:27:11.447Z,35.37
2024-04-30T03:28:11.463Z,35.34
2024-04-30T03:29:11.458Z,35.35
2024-04-30T03:30:11.468Z,35.39
2024-04-30T03:31:11.527Z,35.38
2024-04-30T03:32:11.451Z,35.35
2024-04-30T03:33:11.598Z,35.33
2024-04-30T03:34:11.509Z,35.37
2024-04-30T03:35:11.457Z,35.35
2024-04-30T03:36:11.453Z,35.35
2024-04-30T03:37:11.463Z,35.34
2024-04-30T03:38:11.497Z,35.34
2024-04-30T03:39:11.572Z,35.43
2024-04-30T03:40:11.607Z,35.40
2024-04-30T03:41:11.667Z,35.37
2024-04-30T03:42:11.674Z,35.40
2024-04-30T03:43:11.820Z,35.34
2024-04-30T03:44:11.789Z,35.35
2024-04-30T03:45:11.819Z,35.35
2024-04-30T03:46:11.873Z,35.33
2024-04-30T03:47:11.935Z,35.37
2024-04-30T03:48:11.976Z,35.35
2024-04-30T03:49:12.068Z,35.42
2024-04-30T03:50:12.038Z,35.42
2024-04-30T03:51:12.109Z,35.38
2024-04-30T03:52:12.123Z,35.39
2024-04-30T03:53:12.145Z,35.38
2024-04-30T03:54:12.227Z,35.39
2024-04-30T03:55:12.337Z,35.39
2024-04-30T03:56:12.267Z,35.38
2024-04-30T03:57:12.323Z,35.42
2024-04-30T03:58:12.365Z,35.37
2024-04-30T03:59:12.390Z,35.37
2024-04-30T04:00:12.454Z,35.40
2024-04-30T04:01:12.538Z,35.38
2024-04-30T04:02:12.508Z,35.34
2024-04-30T04:03:12.571Z,35.41
2024-04-30T04:04:12.683Z,35.37
2024-04-30T04:05:12.666Z,35.42
2024-04-30T04:06:16.071Z,35.38
2024-04-30T04:07:12.701Z,35.39
2024-04-30T04:08:12.661Z,35.35
2024-04-30T04:09:12.689Z,35.35
2024-04-30T04:10:12.732Z,35.37
2024-04-30T04:11:12.693Z,35.38
2024-04-30T04:12:12.680Z,35.42
2024-04-30T04:13:12.707Z,35.39
2024-04-30T04:14:12.675Z,35.38
2024-04-30T04:15:12.683Z,35.38
2024-04-30T04:16:12.668Z,35.30
2024-04-30T04:17:12.662Z,35.43
2024-04-30T04:18:12.811Z,35.37
2024-04-30T04:19:12.709Z,35.37
2024-04-30T04:20:12.679Z,35.35
2024-04-30T04:21:21.895Z,35.38
2024-04-30T04:22:19.893Z,35.38
2024-04-30T04:23:19.863Z,35.39
2024-04-30T04:24:19.867Z,35.34
2024-04-30T04:25:19.866Z,35.33
2024-04-30T04:26:19.860Z,35.33
2024-04-30T04:27:19.844Z,35.32
2024-04-30T04:28:19.936Z,35.32
2024-04-30T04:29:19.881Z,35.38
2024-04-30T04:30:19.876Z,35.30
2024-04-30T04:31:27.117Z,35.38
2024-04-30T04:32:27.150Z,35.33
2024-04-30T04:33:27.204Z,35.35
2024-04-30T04:34:27.088Z,35.35
2024-04-30T04:35:27.073Z,35.38
2024-04-30T04:36:27.068Z,35.34
2024-04-30T04:37:27.658Z,35.30
2024-04-30T04:38:27.076Z,35.32
2024-04-30T04:39:27.074Z,35.33
2024-04-30T04:40:27.152Z,35.29
2024-04-30T04:41:27.095Z,35.33
2024-04-30T04:42:27.104Z,35.34
2024-04-30T04:43:27.210Z,35.32
2024-04-30T04:44:27.073Z,35.33
2024-04-30T04:45:27.099Z,35.28
2024-04-30T04:46:27.142Z,35.27
2024-04-30T04:47:27.133Z,35.32
2024-04-30T04:48:27.159Z,35.34
2024-04-30T04:49:27.127Z,35.32
2024-04-30T04:50:27.081Z,35.23
2024-04-30T04:51:27.105Z,35.27
2024-04-30T04:52:27.075Z,35.27
2024-04-30T04:53:27.122Z,35.29
2024-04-30T04:54:27.078Z,35.27
2024-04-30T04:55:27.137Z,35.28
2024-04-30T04:56:27.166Z,35.24
2024-04-30T04:57:27.185Z,35.27
2024-04-30T04:58:27.242Z,35.27
2024-04-30T04:59:27.254Z,35.23
2024-04-30T05:00:27.320Z,35.20
2024-04-30T05:01:27.369Z,35.23
2024-04-30T05:02:27.524Z,35.20
2024-04-30T05:03:27.758Z,35.18
2024-04-30T05:04:27.583Z,35.19
2024-04-30T05:05:27.502Z,35.23
2024-04-30T05:06:27.577Z,35.20
2024-04-30T05:07:27.707Z,35.17
2024-04-30T05:08:27.640Z,35.19
2024-04-30T05:09:27.671Z,35.14
2024-04-30T05:10:27.760Z,35.14
2024-04-30T05:11:27.792Z,35.14
2024-04-30T05:12:27.821Z,35.13
2024-04-30T05:13:27.869Z,35.12
2024-04-30T05:14:27.885Z,35.16
2024-04-30T05:15:27.903Z,35.03
2024-04-30T05:16:27.953Z,35.13
2024-04-30T05:17:28.076Z,35.06
2024-04-30T05:18:28.010Z,35.12
2024-04-30T05:19:28.082Z,35.06
2024-04-30T05:20:28.081Z,35.08
2024-04-30T05:21:28.100Z,35.08
2024-04-30T05:22:28.225Z,35.09
2024-04-30T05:23:28.187Z,35.08
2024-04-30T05:24:28.246Z,35.06
2024-04-30T05:25:28.302Z,35.08
2024-04-30T05:26:28.318Z,35.06
2024-04-30T05:27:28.398Z,35.03
2024-04-30T05:28:28.539Z,35.06
2024-04-30T05:29:28.445Z,35.30
2024-04-30T05:30:28.466Z,35.07
2024-04-30T05:31:28.561Z,35.06
2024-04-30T05:32:28.568Z,35.11
2024-04-30T05:33:28.948Z,35.13
2024-04-30T05:34:28.776Z,34.60
2024-04-30T05:35:28.644Z,34.82
2024-04-30T05:36:28.678Z,34.83
2024-04-30T05:37:28.713Z,34.90
2024-04-30T05:38:28.687Z,34.96
2024-04-30T05:39:28.765Z,35.21
2024-04-30T05:40:28.729Z,35.33
2024-04-30T05:41:28.735Z,35.53
2024-04-30T05:42:28.748Z,35.71
2024-04-30T05:43:28.751Z,35.66
2024-04-30T05:44:28.754Z,35.66
2024-04-30T05:45:28.845Z,35.98
2024-04-30T05:46:28.984Z,36.15
2024-04-30T05:47:28.933Z,36.25
2024-04-30T05:48:29.226Z,36.45
2024-04-30T05:49:29.129Z,36.48
2024-04-30T05:50:29.135Z,36.66
2024-04-30T05:51:29.196Z,36.70
2024-04-30T05:52:29.277Z,36.83
2024-04-30T05:53:29.398Z,36.94
2024-04-30T05:54:30.187Z,37.06
2024-04-30T05:55:29.559Z,37.14
2024-04-30T05:56:29.496Z,37.20
2024-04-30T05:57:29.568Z,37.51
2024-04-30T05:58:29.630Z,37.42
2024-04-30T05:59:29.648Z,37.42
2024-04-30T06:00:29.692Z,37.57
2024-04-30T06:01:29.749Z,37.62
2024-04-30T06:02:29.758Z,37.79
2024-04-30T06:03:29.937Z,37.87
2024-04-30T06:04:29.929Z,38.01
2024-04-30T06:05:30.078Z,38.05
2024-04-30T06:06:29.988Z,38.19
2024-04-30T06:07:30.054Z,38.27
2024-04-30T06:08:30.056Z,38.35
2024-04-30T06:09:30.051Z,38.51
2024-04-30T06:10:30.157Z,38.66
2024-04-30T06:11:30.225Z,38.71
2024-04-30T06:12:30.238Z,38.76
2024-04-30T06:13:30.348Z,38.72
2024-04-30T06:14:30.333Z,38.85
2024-04-30T06:15:30.390Z,38.93
2024-04-30T06:16:30.475Z,39.39
2024-04-30T06:18:30.569Z,39.20
2024-04-30T06:19:30.619Z,39.62
2024-04-30T06:20:30.650Z,39.50
2024-04-30T06:21:36.105Z,39.45
2024-04-30T06:22:31.756Z,39.58
2024-04-30T06:23:30.670Z,39.96
2024-04-30T06:24:30.693Z,39.61
2024-04-30T06:25:30.768Z,39.72
2024-04-30T06:26:30.694Z,39.60
2024-04-30T06:27:30.682Z,39.69
2024-04-30T06:28:34.030Z,39.90
2024-04-30T06:29:30.700Z,39.90
2024-04-30T06:30:30.674Z,39.91
2024-04-30T06:31:30.721Z,40.00
2024-04-30T06:32:30.734Z,39.95
2024-04-30T06:33:30.770Z,40.05
2024-04-30T06:34:30.794Z,40.14
2024-04-30T06:35:30.724Z,40.11
2024-04-30T06:36:30.693Z,40.51
2024-04-30T06:37:30.847Z,40.28
2024-04-30T06:38:30.797Z,40.34
2024-04-30T06:39:30.719Z,40.38
2024-04-30T06:40:30.792Z,40.40
2024-04-30T06:41:30.716Z,40.28
2024-04-30T06:42:30.749Z,40.28
2024-04-30T06:43:30.744Z,40.11
2024-04-30T06:44:30.713Z,40.22
2024-04-30T06:45:30.712Z,40.18
2024-04-30T06:46:30.748Z,40.30
2024-04-30T06:47:30.798Z,40.24
2024-04-30T06:48:30.880Z,40.25
2024-04-30T06:49:30.738Z,40.32
2024-04-30T06:50:30.722Z,40.41
2024-04-30T06:51:30.738Z,40.52
2024-04-30T06:52:30.850Z,40.62
2024-04-30T06:53:30.733Z,40.51
2024-04-30T06:54:30.734Z,40.81
2024-04-30T06:55:30.794Z,40.87
2024-04-30T06:56:30.733Z,40.83
2024-04-30T06:57:30.738Z,40.94
2024-04-30T06:58:30.786Z,40.87
2024-04-30T06:59:30.737Z,41.00
2024-04-30T07:00:30.782Z,41.05
2024-04-30T07:01:30.777Z,41.02
2024-04-30T07:02:30.763Z,41.17
2024-04-30T07:03:30.736Z,41.13
2024-04-30T07:04:30.829Z,41.42
2024-04-30T07:05:30.897Z,41.53
2024-04-30T07:06:30.749Z,41.59
2024-04-30T07:07:30.830Z,41.52
2024-04-30T07:08:30.730Z,41.64
2024-04-30T07:09:30.778Z,41.70
2024-04-30T07:10:30.821Z,41.85
2024-04-30T07:11:31.081Z,42.06
2024-04-30T07:12:30.764Z,42.07
2024-04-30T07:13:30.785Z,42.00
2024-04-30T07:14:30.818Z,42.11
2024-04-30T07:15:30.735Z,42.03
2024-04-30T07:16:30.995Z,42.13
2024-04-30T07:17:30.873Z,42.09
2024-04-30T07:18:30.977Z,41.98
2024-04-30T07:19:30.831Z,42.04
2024-04-30T07:20:30.780Z,42.13
2024-04-30T07:21:30.842Z,42.29
2024-04-30T07:22:30.891Z,42.52
2024-04-30T07:23:30.846Z,42.17
2024-04-30T07:24:31.228Z,42.33
2024-04-30T07:25:30.821Z,42.13
2024-04-30T07:26:30.783Z,42.19
2024-04-30T07:27:30.818Z,42.07
2024-04-30T07:28:30.860Z,42.22
2024-04-30T07:29:30.800Z,42.06
2024-04-30T07:30:30.784Z,42.10
2024-04-30T07:31:30.921Z,41.95
2024-04-30T07:32:30.922Z,42.04
2024-04-30T07:33:30.821Z,41.52
2024-04-30T07:34:30.899Z,41.39
2024-04-30T07:35:30.785Z,41.04
2024-04-30T07:36:30.882Z,40.82
2024-04-30T07:37:30.817Z,40.42
2024-04-30T07:38:30.790Z,40.15
2024-04-30T07:39:30.805Z,39.53
2024-04-30T07:40:30.932Z,39.70
2024-04-30T07:41:30.778Z,39.76
2024-04-30T07:42:30.811Z,39.82
2024-04-30T07:43:31.802Z,39.81
2024-04-30T07:44:31.262Z,39.97
2024-04-30T07:45:30.901Z,40.00
2024-04-30T07:46:30.983Z,39.96
2024-04-30T07:47:31.116Z,39.86
2024-04-30T07:48:31.276Z,39.97
2024-04-30T07:49:31.229Z,39.88
2024-04-30T07:50:31.177Z,39.97
2024-04-30T07:51:31.283Z,40.00
2024-04-30T07:52:31.319Z,39.87
2024-04-30T07:53:31.354Z,39.82
2024-04-30T07:54:31.462Z,40.12
2024-04-30T07:55:31.544Z,40.02
2024-04-30T07:56:31.507Z,39.97
2024-04-30T07:57:31.563Z,39.92
2024-04-30T07:58:31.671Z,40.06
2024-04-30T07:59:31.648Z,40.01
2024-04-30T08:00:31.703Z,40.19
2024-04-30T08:01:31.844Z,40.34
2024-04-30T08:02:31.829Z,40.04
2024-04-30T08:03:32.341Z,40.01
2024-04-30T08:04:38.248Z,40.18
2024-04-30T08:05:42.057Z,40.25
2024-04-30T08:06:32.883Z,40.18
2024-04-30T08:07:31.975Z,40.25
2024-04-30T08:08:31.926Z,40.50
2024-04-30T08:09:31.892Z,40.61
2024-04-30T08:10:31.901Z,40.58
2024-04-30T08:11:31.915Z,40.61
2024-04-30T08:12:31.888Z,40.67
2024-04-30T08:13:31.898Z,40.65
2024-04-30T08:14:35.544Z,40.47
2024-04-30T08:15:31.896Z,40.71
2024-04-30T08:16:31.982Z,40.95
2024-04-30T08:17:31.957Z,40.88
2024-04-30T08:18:31.897Z,40.88
2024-04-30T08:19:31.995Z,40.89
2024-04-30T08:20:31.899Z,40.63
2024-04-30T08:21:32.824Z,40.86
2024-04-30T08:22:31.973Z,40.90
2024-04-30T08:23:31.945Z,40.94
2024-04-30T08:24:32.284Z,40.51
2024-04-30T08:25:32.040Z,36.46
2024-04-30T08:26:31.896Z,37.74
2024-04-30T08:27:31.924Z,38.61
2024-04-30T08:28:31.990Z,38.42
2024-04-30T08:29:31.957Z,37.54
2024-04-30T08:30:31.937Z,37.41
2024-04-30T08:31:31.944Z,37.40
2024-04-30T08:32:32.016Z,37.45
2024-04-30T08:33:31.969Z,36.60
2024-04-30T08:34:31.920Z,36.72
2024-04-30T08:35:31.930Z,36.31
2024-04-30T08:36:32.897Z,35.83
2024-04-30T08:37:34.419Z,35.79
2024-04-30T08:38:32.950Z,35.51
2024-04-30T08:39:32.280Z,35.38
2024-04-30T08:40:31.951Z,34.89
2024-04-30T08:41:31.929Z,35.39
2024-04-30T08:42:31.966Z,35.09
2024-04-30T08:43:31.951Z,35.39
2024-04-30T08:44:32.292Z,35.92
2024-04-30T08:45:31.999Z,36.11
2024-04-30T08:46:31.970Z,36.09
2024-04-30T08:47:32.097Z,36.11
2024-04-30T08:48:31.987Z,36.17
2024-04-30T08:49:38.551Z,35.79
2024-04-30T08:50:33.868Z,35.39
2024-04-30T08:51:32.059Z,35.65
2024-04-30T08:52:32.083Z,33.65
2024-04-30T08:53:32.813Z,33.97
2024-04-30T08:54:32.789Z,32.97
2024-04-30T08:55:32.079Z,31.47
2024-04-30T08:56:32.106Z,31.56
2024-04-30T08:57:32.055Z,31.66
2024-04-30T08:58:32.089Z,31.50
2024-04-30T08:59:32.287Z,31.74
2024-04-30T09:00:32.088Z,31.59
2024-04-30T09:01:32.152Z,30.87
2024-04-30T09:02:32.149Z,30.77
2024-04-30T09:03:32.155Z,30.08
2024-04-30T09:04:32.392Z,30.60
2024-04-30T09:05:32.287Z,30.30
2024-04-30T09:06:32.244Z,30.44
2024-04-30T09:07:32.457Z,30.38
2024-04-30T09:08:32.404Z,31.17
2024-04-30T09:09:32.506Z,30.92
2024-04-30T09:10:32.531Z,30.14
2024-04-30T09:11:32.716Z,30.11
2024-04-30T09:12:32.704Z,30.18
2024-04-30T09:13:32.824Z,29.96
2024-04-30T09:14:32.755Z,29.83
2024-04-30T09:15:32.755Z,29.51
2024-04-30T09:16:32.774Z,29.65
2024-04-30T09:17:32.804Z,29.47
2024-04-30T09:18:32.824Z,28.81
2024-04-30T09:19:32.885Z,29.08
2024-04-30T09:20:32.813Z,28.97
2024-04-30T09:21:32.810Z,28.87
2024-04-30T09:22:32.904Z,28.58
2024-04-30T09:23:32.833Z,28.36
2024-04-30T09:24:32.924Z,28.35
2024-04-30T09:25:32.969Z,28.37
2024-04-30T09:26:32.983Z,28.09
2024-04-30T09:27:33.088Z,27.86
2024-04-30T09:28:33.137Z,27.57
2024-04-30T09:29:33.178Z,27.64
2024-04-30T09:30:33.285Z,27.83
2024-04-30T09:31:33.239Z,27.62
2024-04-30T09:32:33.274Z,27.59
2024-04-30T09:33:33.503Z,27.85
2024-04-30T09:34:33.346Z,27.17
2024-04-30T09:35:33.254Z,27.93
2024-04-30T09:36:33.293Z,28.22
2024-04-30T09:37:33.410Z,27.65
2024-04-30T09:38:33.330Z,28.16
2024-04-30T09:39:33.777Z,27.74
2024-04-30T09:40:33.377Z,27.53
2024-04-30T09:41:33.814Z,27.37
2024-04-30T09:42:33.401Z,27.17
2024-04-30T09:43:33.472Z,26.09
2024-04-30T09:44:33.395Z,26.69
2024-04-30T09:45:33.435Z,26.59
2024-04-30T09:46:33.528Z,26.59
2024-04-30T09:47:33.465Z,26.11
2024-04-30T09:48:33.448Z,26.28
2024-04-30T09:49:33.471Z,26.33
2024-04-30T09:50:33.432Z,25.96
2024-04-30T09:51:34.463Z,26.18
2024-04-30T09:52:33.552Z,26.08
2024-04-30T09:53:33.611Z,26.13
2024-04-30T09:54:33.833Z,25.51
2024-04-30T09:55:33.723Z,25.70
2024-04-30T09:56:33.695Z,25.48
2024-04-30T09:57:33.800Z,25.75
2024-04-30T09:58:33.967Z,25.40
2024-04-30T09:59:33.884Z,25.37
2024-04-30T10:00:33.912Z,25.45
2024-04-30T10:01:34.038Z,25.36
2024-04-30T10:02:34.034Z,24.59
2024-04-30T10:03:34.017Z,25.14
2024-04-30T10:04:34.140Z,25.24
2024-04-30T10:05:34.040Z,24.69
2024-04-30T10:06:34.065Z,24.96
2024-04-30T10:07:34.138Z,24.54
2024-04-30T10:08:34.175Z,24.98
2024-04-30T10:09:34.207Z,24.85
2024-04-30T10:10:34.263Z,24.75
2024-04-30T10:11:34.422Z,24.85
2024-04-30T10:12:34.261Z,25.18
2024-04-30T10:13:34.410Z,24.96
2024-04-30T10:14:34.306Z,24.78
2024-04-30T10:15:34.427Z,24.71
2024-04-30T10:16:34.491Z,24.71
2024-04-30T10:17:34.528Z,24.96
2024-04-30T10:18:35.058Z,24.99
2024-04-30T10:19:34.460Z,24.73
2024-04-30T10:20:34.739Z,24.95
2024-04-30T10:21:34.516Z,24.82
2024-04-30T10:22:34.575Z,25.14
2024-04-30T10:23:34.491Z,25.57
2024-04-30T10:24:34.473Z,25.81
2024-04-30T10:25:34.646Z,26.03
2024-04-30T10:26:34.503Z,25.48
2024-04-30T10:27:34.544Z,25.20
2024-04-30T10:28:34.616Z,25.64
2024-04-30T10:29:34.678Z,25.83
2024-04-30T10:30:34.694Z,26.27
2024-04-30T10:31:34.797Z,25.99
2024-04-30T10:32:34.952Z,25.61
2024-04-30T10:33:34.920Z,25.50
2024-04-30T10:34:35.412Z,25.57
2024-04-30T10:35:35.067Z,25.69
2024-04-30T10:36:35.318Z,25.54
2024-04-30T10:37:35.228Z,25.66
2024-04-30T10:38:35.245Z,25.76
2024-04-30T10:39:35.308Z,25.73
2024-04-30T10:40:35.335Z,25.64
2024-04-30T10:41:35.349Z,25.66
2024-04-30T10:42:35.278Z,25.54
2024-04-30T10:43:35.352Z,25.56
2024-04-30T10:44:35.334Z,25.74
2024-04-30T10:45:35.316Z,25.83
2024-04-30T10:46:35.376Z,25.90
2024-04-30T10:47:35.466Z,25.86
2024-04-30T10:48:35.386Z,25.95
2024-04-30T10:49:35.358Z,25.92
2024-04-30T10:50:35.322Z,25.89
2024-04-30T10:51:35.335Z,25.94
2024-04-30T10:52:35.391Z,25.53
2024-04-30T10:53:35.363Z,25.81
2024-04-30T10:54:35.432Z,25.86
2024-04-30T10:55:35.398Z,25.77
2024-04-30T10:56:35.367Z,25.62
2024-04-30T10:57:35.379Z,25.44
2024-04-30T10:58:35.435Z,25.50
2024-04-30T10:59:35.488Z,25.43
2024-04-30T11:00:35.490Z,25.57
2024-04-30T11:01:35.736Z,25.53
2024-04-30T11:02:35.501Z,25.65
2024-04-30T11:03:35.501Z,25.63
2024-04-30T11:04:35.553Z,25.71
2024-04-30T11:05:35.581Z,25.75
2024-04-30T11:06:35.609Z,25.22
2024-04-30T11:07:35.559Z,25.23
2024-04-30T11:08:35.524Z,25.81
2024-04-30T11:09:35.490Z,26.06
2024-04-30T11:10:35.552Z,25.70
2024-04-30T11:11:35.582Z,25.72
2024-04-30T11:12:35.592Z,26.03
2024-04-30T11:13:35.576Z,26.22
2024-04-30T11:14:35.556Z,26.28
2024-04-30T11:15:35.556Z,26.43
2024-04-30T11:16:35.679Z,26.67
2024-04-30T11:17:35.658Z,27.01
2024-04-30T11:18:35.680Z,26.95
2024-04-30T11:19:35.891Z,27.69
2024-04-30T11:20:35.656Z,28.52
2024-04-30T11:21:35.715Z,29.50
2024-04-30T11:22:36.387Z,29.72
2024-04-30T11:23:35.738Z,29.49
2024-04-30T11:24:35.865Z,29.47
2024-04-30T11:25:35.793Z,29.69
2024-04-30T11:26:35.799Z,29.75
2024-04-30T11:27:35.841Z,30.02
2024-04-30T11:28:35.950Z,30.02
2024-04-30T11:29:40.076Z,30.21
2024-04-30T11:30:35.917Z,30.35
2024-04-30T11:31:35.972Z,30.55
2024-04-30T11:32:36.093Z,30.95
2024-04-30T11:33:35.908Z,31.16
2024-04-30T11:34:36.019Z,31.14
2024-04-30T11:35:35.937Z,31.10
2024-04-30T11:36:35.913Z,31.31
2024-04-30T11:37:35.985Z,31.52
2024-04-30T11:38:35.971Z,31.58
2024-04-30T11:39:35.925Z,31.73
2024-04-30T11:40:35.931Z,31.65
2024-04-30T11:41:37.033Z,31.74
2024-04-30T11:42:42.491Z,31.78
2024-04-30T11:43:36.951Z,31.78
2024-04-30T11:44:35.929Z,31.81
2024-04-30T11:45:35.933Z,31.90
2024-04-30T11:46:36.178Z,31.95
2024-04-30T11:47:35.994Z,31.95
2024-04-30T11:48:35.966Z,32.02
2024-04-30T11:49:35.970Z,32.05
2024-04-30T11:50:35.937Z,32.06
2024-04-30T11:51:35.936Z,32.06
2024-04-30T11:52:36.004Z,32.06
2024-04-30T11:53:37.370Z,32.05
2024-04-30T11:54:35.949Z,32.06
2024-04-30T11:55:35.968Z,32.07
2024-04-30T11:56:35.992Z,31.96
2024-04-30T11:57:35.967Z,32.03
2024-04-30T11:58:35.944Z,32.03
2024-04-30T11:59:35.970Z,32.02
2024-04-30T12:00:37.861Z,32.08
2024-04-30T12:01:35.959Z,32.06
2024-04-30T12:02:36.009Z,32.02
2024-04-30T12:03:35.949Z,32.07
2024-04-30T12:04:36.005Z,31.99
2024-04-30T12:05:36.066Z,32.06
2024-04-30T12:06:38.601Z,32.03
2024-04-30T12:07:36.027Z,32.02
2024-04-30T12:08:35.952Z,32.01
2024-04-30T12:09:35.985Z,31.97
2024-04-30T12:10:36.000Z,31.97
2024-04-30T12:11:36.020Z,31.95
2024-04-30T12:12:35.935Z,32.00
2024-04-30T12:13:35.962Z,31.93
2024-04-30T12:14:35.935Z,31.96
2024-04-30T12:15:35.945Z,31.95
2024-04-30T12:16:36.021Z,31.90
2024-04-30T12:17:36.018Z,31.95
2024-04-30T12:18:35.960Z,31.90
2024-04-30T12:19:36.010Z,31.88
2024-04-30T12:20:35.993Z,31.93
2024-04-30T12:21:35.963Z,32.12
2024-04-30T12:22:36.016Z,32.15
2024-04-30T12:23:35.981Z,32.90
2024-04-30T12:24:35.981Z,33.13
2024-04-30T12:25:35.994Z,33.37
2024-04-30T12:26:35.961Z,34.35
2024-04-30T12:27:36.005Z,33.57
2024-04-30T12:28:36.028Z,33.31
2024-04-30T12:29:36.016Z,32.86
2024-04-30T12:30:35.974Z,32.69
2024-04-30T12:31:36.032Z,32.60
2024-04-30T12:32:35.999Z,32.45
2024-04-30T12:33:36.012Z,32.47
2024-04-30T12:34:36.012Z,32.13
2024-04-30T12:35:35.983Z,32.09
2024-04-30T12:36:36.004Z,32.29
2024-04-30T12:37:36.018Z,32.13
2024-04-30T12:38:35.955Z,31.99
2024-04-30T12:39:35.973Z,31.99
2024-04-30T12:40:35.995Z,31.90
2024-04-30T12:41:35.970Z,31.75
2024-04-30T12:42:35.985Z,32.00
2024-04-30T12:43:36.013Z,32.01
2024-04-30T12:44:35.994Z,31.91
2024-04-30T12:45:35.982Z,31.90
2024-04-30T12:46:36.026Z,31.83
2024-04-30T12:47:36.061Z,31.88
2024-04-30T12:48:36.127Z,31.85
2024-04-30T12:49:36.041Z,31.78
2024-04-30T12:50:36.037Z,31.79
2024-04-30T12:51:35.988Z,31.82
2024-04-30T12:52:36.077Z,31.75
2024-04-30T12:53:36.881Z,31.76